Aérodrome :
LOGIN :

S'inscrire | Disclaimer

   EN    FR    IT 

 










Légende :    VFR   VFR Marginal   IFR   IFR Intensif   IFR Très Intensif
Visi : 
Plafond : 
>= 8 km
>= 3000ft
5 à 8 km
1000 à 3000 ft
1500m à 5 km
500 à 1000 ft
800 à 1500m
200 à 500 ft
< 800m
< 200 ft
Symboles :   Orages  Brouillard  Fortes neiges  Fortes précipitations  Vent > 20 kt
SIGMETs :   Divers  Orages  Givrage  Turbulence  Onde Orograph.  Cendres Volcan.







- Altitude de l'aérodrome : 913 ft
- Voir les cartes d'approche


LFSX - Luxeuil

DERNIER METAR :
  • 221230Z AUTO 06013KT 9999 OVC046 02/M07 Q1012 NOSIG

METARs EXPIRÉS :
  • 221200Z AUTO 02011KT 350V050 9999 BKN048 03/M08 Q1012 NOSIG
  • 221130Z AUTO 02013KT 350V050 CAVOK 03/M08 Q1012 NOSIG
  • 221100Z AUTO 01010KT CAVOK 04/M10 Q1012 NOSIG
  • 221030Z AUTO 04010KT 360V070 CAVOK 03/M09 Q1012 NOSIG
  • 221000Z AUTO 05011KT 020V090 9999 NSC 03/M09 Q1012 NOSIG
  • 220930Z AUTO 03008KT 360V060 CAVOK 03/M09 Q1012 NOSIG

TAF TAF LFSX
Valide du 22 à 09h jusqu'au 23 à 09h UTC


220800Z 2209/2309 02008KT CAVOK
Pas de NOTAMs connus pour ce terrain.



MET'MAP, la Météo Aéronautique d'un coup d'oeil ! - Copyright ORBIFLY Décembre 2007 - Disclaimer

ORBIFLY MET'MAP TEAM :

Programmation & Développement : Alexandra Zaïnal
Conception & Développement : Baudouin d'Aumeries
Co-Programmation & Développement : Marc-Olivier Méhu
Soutien technique & logistique : Manuel Goepfert

Contact : metmap@orbifly.com




SOURCES & CREDITS :

   NOAA